createdAt,value
2023-05-22T11:51:23.352Z,54.61
2023-05-22T11:54:23.954Z,51.66
2023-05-22T11:57:24.866Z,43.61
2023-05-22T12:00:25.577Z,40.36
2023-05-22T12:03:26.531Z,39.03
2023-05-22T12:06:30.398Z,36.78
2023-05-22T12:09:28.038Z,35.67
2023-05-22T12:12:28.696Z,34.00
2023-05-22T12:15:29.595Z,35.26
2023-05-22T12:18:30.235Z,34.86
2023-05-22T12:21:30.634Z,34.72
2023-05-22T12:24:31.439Z,35.28
2023-05-22T12:27:33.577Z,35.03
2023-05-22T12:30:32.872Z,34.90
2023-05-22T12:33:33.794Z,34.42
2023-05-22T12:36:34.471Z,34.05
2023-05-22T12:39:35.506Z,33.07
2023-05-22T12:42:36.168Z,32.97
2023-05-22T12:45:37.059Z,32.57
2023-05-22T12:48:37.739Z,33.45
2023-05-22T12:51:38.666Z,31.68
2023-05-22T12:54:39.493Z,32.01
2023-05-22T12:57:39.936Z,31.97
2023-05-22T13:00:40.838Z,31.68
2023-05-22T13:03:41.422Z,31.33
2023-05-22T13:06:42.116Z,30.98
2023-05-22T13:09:43.159Z,30.96
2023-05-22T13:12:43.814Z,31.00
2023-05-22T13:15:44.821Z,31.33
2023-05-22T13:18:45.522Z,31.59
2023-05-22T13:21:46.415Z,30.28
2023-05-22T13:24:47.267Z,30.48
2023-05-22T13:27:47.647Z,31.27
2023-05-22T13:30:48.366Z,31.59
2023-05-22T13:33:49.284Z,31.09
2023-05-22T13:36:49.978Z,31.36
2023-05-22T13:39:51.011Z,31.86
2023-05-22T13:42:51.719Z,31.98
2023-05-22T13:45:52.660Z,32.09
2023-05-22T13:48:53.322Z,31.94
2023-05-22T13:51:54.255Z,32.26
2023-05-22T13:54:55.114Z,32.23
2023-05-22T13:57:55.528Z,32.47
2023-05-22T14:00:56.233Z,32.56
2023-05-22T14:03:57.140Z,32.71
2023-05-22T14:06:57.860Z,32.58
2023-05-22T14:10:01.190Z,33.77
2023-05-22T14:12:59.328Z,33.67
2023-05-22T14:16:00.019Z,33.62
2023-05-22T14:19:01.039Z,33.39
2023-05-22T14:22:01.733Z,33.52
2023-05-22T14:25:02.768Z,32.90
2023-05-22T14:28:03.429Z,32.53
2023-05-22T14:31:04.430Z,31.86
2023-05-22T14:34:05.098Z,31.39
2023-05-22T14:37:06.055Z,32.25
2023-05-22T14:40:06.913Z,32.85
2023-05-22T14:43:07.397Z,32.62
2023-05-22T14:46:08.124Z,33.30
2023-05-22T14:49:09.033Z,32.15
2023-05-22T14:52:09.707Z,31.88
2023-05-22T14:55:10.808Z,32.40
2023-05-22T14:58:11.429Z,32.63
2023-05-22T15:01:12.360Z,32.38
2023-05-22T15:04:13.014Z,33.36
2023-05-22T15:07:14.001Z,32.97
2023-05-22T15:10:14.777Z,33.12
2023-05-22T15:13:15.159Z,32.44
2023-05-22T15:16:15.894Z,32.53
2023-05-22T15:19:16.991Z,32.97
2023-05-22T15:22:19.992Z,32.34
2023-05-22T15:25:18.049Z,32.65
2023-05-22T15:28:18.913Z,32.97
2023-05-22T15:31:19.680Z,32.65
2023-05-22T15:34:20.582Z,33.20
2023-05-22T15:37:21.237Z,32.85
2023-05-22T15:40:22.284Z,32.90
2023-05-22T15:43:24.334Z,32.94
2023-05-22T15:46:23.630Z,33.07
2023-05-22T15:49:24.322Z,33.09
2023-05-22T15:52:25.363Z,33.05
2023-05-22T15:55:26.171Z,33.63
2023-05-22T15:58:26.580Z,34.12
2023-05-22T16:01:27.267Z,34.22
2023-05-22T16:04:28.186Z,35.26
2023-05-22T16:07:28.839Z,35.53
2023-05-22T16:10:29.898Z,35.14
2023-05-22T16:13:30.517Z,36.05
2023-05-22T16:16:31.612Z,36.33
2023-05-22T16:19:32.329Z,36.25
2023-05-22T16:22:47.198Z,36.12
2023-05-22T16:25:35.209Z,36.62
2023-05-22T16:28:35.129Z,36.33
2023-05-22T16:31:35.919Z,35.97
2023-05-22T16:34:36.895Z,36.53
2023-05-22T16:37:37.545Z,37.17
2023-05-22T16:40:38.657Z,38.01
2023-05-22T16:43:39.284Z,38.50
2023-05-22T16:46:40.228Z,39.29
2023-05-22T16:49:40.900Z,40.49
2023-05-22T16:52:41.825Z,41.17
2023-05-22T16:55:42.929Z,41.86
2023-05-22T16:58:43.554Z,42.47
2023-05-22T17:01:44.402Z,42.88
2023-05-22T17:04:45.320Z,43.43
2023-05-22T17:07:45.992Z,43.48
2023-05-22T17:10:47.083Z,43.63
2023-05-22T17:13:47.969Z,43.82
2023-05-22T17:16:48.670Z,44.09
2023-05-22T17:19:49.593Z,44.41
2023-05-22T17:22:50.332Z,44.66
2023-05-22T17:25:51.338Z,44.88
2023-05-22T17:28:51.970Z,45.12
2023-05-22T17:31:52.927Z,45.60
2023-05-22T17:34:53.642Z,46.07
2023-05-22T17:37:54.567Z,46.41
2023-05-22T17:40:55.351Z,47.25
2023-05-22T17:43:56.227Z,47.48
2023-05-22T17:46:56.942Z,46.15
2023-05-22T17:49:57.908Z,45.59
2023-05-22T17:52:58.548Z,44.98
2023-05-22T17:55:59.596Z,45.17
2023-05-22T17:59:00.275Z,45.44
2023-05-22T18:02:01.387Z,45.37
2023-05-22T18:05:02.072Z,45.22
2023-05-22T18:08:03.038Z,45.37
2023-05-22T18:11:03.878Z,45.68
2023-05-22T18:14:04.286Z,45.88
2023-05-22T18:17:04.951Z,46.37
2023-05-22T18:20:05.885Z,46.61
2023-05-22T18:23:06.592Z,46.80
2023-05-22T18:26:07.681Z,47.11
2023-05-22T18:29:08.299Z,47.15
2023-05-22T18:32:09.219Z,47.22
2023-05-22T18:35:09.908Z,47.26
2023-05-22T18:38:10.830Z,47.64
2023-05-22T18:41:11.615Z,47.71
2023-05-22T18:44:12.205Z,47.88
2023-05-22T18:47:12.938Z,48.15
2023-05-22T18:50:13.878Z,48.14
2023-05-22T18:53:14.537Z,48.04
2023-05-22T18:56:16.066Z,48.31
2023-05-22T18:59:16.248Z,48.47
2023-05-22T19:02:17.175Z,49.01
2023-05-22T19:05:17.939Z,49.34
2023-05-22T19:08:18.864Z,49.55
2023-05-22T19:11:19.697Z,49.87
2023-05-22T19:14:20.102Z,49.96
2023-05-22T19:17:20.832Z,50.29
2023-05-22T19:20:21.759Z,50.28
2023-05-22T19:23:22.441Z,50.21
2023-05-22T19:26:23.491Z,50.13
2023-05-22T19:29:24.111Z,50.46
2023-05-22T19:32:25.066Z,51.28
2023-05-22T19:35:25.770Z,51.79
2023-05-22T19:38:26.718Z,52.27
2023-05-22T19:41:27.482Z,52.67
2023-05-22T19:44:28.364Z,52.92
2023-05-22T19:47:29.123Z,52.60
2023-05-22T19:50:30.054Z,52.64
2023-05-22T19:53:30.723Z,52.92
2023-05-22T19:56:31.808Z,53.74
2023-05-22T19:59:33.656Z,53.86
2023-05-22T20:02:33.068Z,54.22
2023-05-22T20:05:33.732Z,54.41
2023-05-22T20:08:34.320Z,54.82
2023-05-22T20:11:35.141Z,54.95
2023-05-22T20:14:36.006Z,55.34
2023-05-22T20:17:36.725Z,55.87
2023-05-22T20:20:37.628Z,56.18
2023-05-22T20:23:38.300Z,56.44
2023-05-22T20:26:39.342Z,56.78
2023-05-22T20:29:40.022Z,56.77
2023-05-22T20:32:40.985Z,57.10
2023-05-22T20:35:42.127Z,57.45
2023-05-22T20:38:42.816Z,57.57
2023-05-22T20:41:43.630Z,57.87
2023-05-22T20:44:44.505Z,58.20
2023-05-22T20:47:45.208Z,58.56
2023-05-22T20:50:45.999Z,58.74
2023-05-22T20:53:46.764Z,59.01
2023-05-22T20:56:47.808Z,59.11
2023-05-22T20:59:48.464Z,59.49
2023-05-22T21:02:49.452Z,59.61
2023-05-22T21:05:50.129Z,60.03
2023-05-22T21:08:53.911Z,60.16
2023-05-22T21:11:51.885Z,60.18
2023-05-22T21:14:52.513Z,60.72
2023-05-22T21:17:53.500Z,60.81
2023-05-22T21:20:54.130Z,61.09
2023-05-22T21:23:55.072Z,61.35
2023-05-22T21:26:55.867Z,61.24
2023-05-22T21:29:56.308Z,61.93
2023-05-22T21:32:57.038Z,62.01
2023-05-22T21:35:57.958Z,62.00
2023-05-22T21:38:58.639Z,62.33
2023-05-22T21:41:59.735Z,62.52
2023-05-22T21:45:00.382Z,62.73
2023-05-22T21:48:01.339Z,63.09
2023-05-22T21:51:02.010Z,63.48
2023-05-22T21:54:02.994Z,63.98
2023-05-22T21:57:03.808Z,64.12
2023-05-22T22:00:04.207Z,64.11
2023-05-22T22:03:04.963Z,64.43
2023-05-22T22:06:05.928Z,64.72
2023-05-22T22:09:06.600Z,64.59
2023-05-22T22:12:07.626Z,64.94
2023-05-22T22:15:08.308Z,64.63
2023-05-22T22:18:09.304Z,64.85
2023-05-22T22:21:09.977Z,65.56
2023-05-22T22:24:10.902Z,65.42
2023-05-22T22:27:11.701Z,65.77
2023-05-22T22:30:12.649Z,66.02
2023-05-22T22:33:13.329Z,66.51
2023-05-22T22:36:14.246Z,66.69
2023-05-22T22:39:14.926Z,67.23
2023-05-22T22:42:16.048Z,67.26
2023-05-22T22:45:16.693Z,67.43
2023-05-22T22:48:17.591Z,67.46
2023-05-22T22:51:18.267Z,67.41
2023-05-22T22:54:19.229Z,67.78
2023-05-22T22:57:20.156Z,67.55
2023-05-22T23:00:20.555Z,67.63
2023-05-22T23:03:21.191Z,67.50
2023-05-22T23:06:22.153Z,67.32
2023-05-22T23:09:22.808Z,67.41
2023-05-22T23:12:23.846Z,67.42
2023-05-22T23:15:24.215Z,67.69
2023-05-22T23:18:25.254Z,67.60
2023-05-22T23:21:25.922Z,67.79
2023-05-22T23:24:26.852Z,68.51
2023-05-22T23:27:27.661Z,68.93
2023-05-22T23:30:28.046Z,69.15
2023-05-22T23:33:28.716Z,68.91
2023-05-22T23:36:29.632Z,69.28
2023-05-22T23:39:30.348Z,69.37
2023-05-22T23:42:31.389Z,69.41
2023-05-22T23:45:32.051Z,69.50
2023-05-22T23:48:32.972Z,69.45
2023-05-22T23:51:33.693Z,69.49
2023-05-22T23:54:34.607Z,69.68
2023-05-22T23:57:35.406Z,69.77
